sensor_id;sensor_type;location;lat;lon;timestamp;pressure;altitude;pressure_sealevel;temperature;humidity
59170;BME280;52474;52.236;5.114;2023-05-02T00:02:03;102056.81;;;10.11;100.00
59170;BME280;52474;52.236;5.114;2023-05-02T00:04:29;102048.06;;;9.96;100.00
59170;BME280;52474;52.236;5.114;2023-05-02T00:06:55;102027.00;;;9.95;100.00
59170;BME280;52474;52.236;5.114;2023-05-02T00:09:20;101971.22;;;9.56;100.00
59170;BME280;52474;52.236;5.114;2023-05-02T00:11:46;102056.94;;;10.09;100.00
59170;BME280;52474;52.236;5.114;2023-05-02T00:14:12;102041.94;;;9.96;100.00
59170;BME280;52474;52.236;5.114;2023-05-02T00:16:37;102064.75;;;10.11;100.00
59170;BME280;52474;52.236;5.114;2023-05-02T00:19:03;102066.56;;;10.10;100.00
59170;BME280;52474;52.236;5.114;2023-05-02T00:21:29;102072.81;;;10.09;100.00
59170;BME280;52474;52.236;5.114;2023-05-02T00:23:55;102067.63;;;10.08;100.00
59170;BME280;52474;52.236;5.114;2023-05-02T00:26:23;102071.22;;;10.07;100.00
59170;BME280;52474;52.236;5.114;2023-05-02T00:28:49;102069.31;;;10.09;100.00
59170;BME280;52474;52.236;5.114;2023-05-02T00:31:15;102072.06;;;10.07;100.00
59170;BME280;52474;52.236;5.114;2023-05-02T00:33:41;102081.53;;;10.12;100.00
59170;BME280;52474;52.236;5.114;2023-05-02T00:36:17;102071.09;;;10.08;100.00
59170;BME280;52474;52.236;5.114;2023-05-02T00:38:43;102050.34;;;9.88;100.00
59170;BME280;52474;52.236;5.114;2023-05-02T00:41:09;102056.22;;;9.93;100.00
59170;BME280;52474;52.236;5.114;2023-05-02T00:43:35;102093.63;;;10.01;100.00
59170;BME280;52474;52.236;5.114;2023-05-02T00:46:04;102072.00;;;9.80;100.00
59170;BME280;52474;52.236;5.114;2023-05-02T00:48:30;102091.16;;;9.84;100.00
59170;BME280;52474;52.236;5.114;2023-05-02T00:50:56;102101.41;;;9.90;100.00
59170;BME280;52474;52.236;5.114;2023-05-02T00:53:22;102092.41;;;9.78;100.00
59170;BME280;52474;52.236;5.114;2023-05-02T00:55:48;102104.13;;;9.88;100.00
59170;BME280;52474;52.236;5.114;2023-05-02T00:58:15;102113.31;;;9.83;100.00
59170;BME280;52474;52.236;5.114;2023-05-02T01:03:59;102119.81;;;9.63;100.00
59170;BME280;52474;52.236;5.114;2023-05-02T01:09:33;102124.63;;;9.56;100.00
59170;BME280;52474;52.236;5.114;2023-05-02T01:12:08;102098.91;;;9.44;100.00
59170;BME280;52474;52.236;5.114;2023-05-02T01:14:44;102120.00;;;9.60;100.00
59170;BME280;52474;52.236;5.114;2023-05-02T01:17:13;102101.66;;;9.42;100.00
59170;BME280;52474;52.236;5.114;2023-05-02T01:19:43;102121.03;;;9.57;100.00
59170;BME280;52474;52.236;5.114;2023-05-02T01:22:11;102124.91;;;9.52;100.00
59170;BME280;52474;52.236;5.114;2023-05-02T01:24:51;102129.13;;;9.40;100.00
59170;BME280;52474;52.236;5.114;2023-05-02T01:27:42;102143.69;;;9.47;100.00
59170;BME280;52474;52.236;5.114;2023-05-02T01:30:13;102062.78;;;9.00;100.00
59170;BME280;52474;52.236;5.114;2023-05-02T01:32:44;102143.50;;;9.36;100.00
59170;BME280;52474;52.236;5.114;2023-05-02T01:35:13;102135.13;;;9.28;100.00
59170;BME280;52474;52.236;5.114;2023-05-02T01:37:42;102144.88;;;9.27;100.00
59170;BME280;52474;52.236;5.114;2023-05-02T01:40:10;102146.16;;;9.20;100.00
59170;BME280;52474;52.236;5.114;2023-05-02T01:42:39;102141.91;;;9.17;100.00
59170;BME280;52474;52.236;5.114;2023-05-02T01:45:08;102139.53;;;9.13;100.00
59170;BME280;52474;52.236;5.114;2023-05-02T01:47:35;102135.13;;;9.13;100.00
59170;BME280;52474;52.236;5.114;2023-05-02T01:50:02;102153.25;;;9.19;100.00
59170;BME280;52474;52.236;5.114;2023-05-02T01:52:30;102140.09;;;9.03;100.00
59170;BME280;52474;52.236;5.114;2023-05-02T01:54:58;102141.13;;;9.01;100.00
59170;BME280;52474;52.236;5.114;2023-05-02T01:57:24;102168.47;;;9.16;100.00
59170;BME280;52474;52.236;5.114;2023-05-02T01:59:54;102153.91;;;9.09;100.00
59170;BME280;52474;52.236;5.114;2023-05-02T02:02:23;102143.19;;;8.96;100.00
59170;BME280;52474;52.236;5.114;2023-05-02T02:04:51;102171.53;;;9.08;100.00
59170;BME280;52474;52.236;5.114;2023-05-02T02:07:18;102174.53;;;9.02;100.00
59170;BME280;52474;52.236;5.114;2023-05-02T02:09:44;102160.03;;;8.93;100.00
59170;BME280;52474;52.236;5.114;2023-05-02T02:12:23;102188.50;;;9.04;100.00
59170;BME280;52474;52.236;5.114;2023-05-02T02:14:57;102184.31;;;9.00;100.00
59170;BME280;52474;52.236;5.114;2023-05-02T02:17:46;102186.97;;;9.00;100.00
59170;BME280;52474;52.236;5.114;2023-05-02T02:20:14;102188.09;;;8.96;100.00
59170;BME280;52474;52.236;5.114;2023-05-02T02:22:41;102200.38;;;8.97;100.00
59170;BME280;52474;52.236;5.114;2023-05-02T02:25:10;102203.84;;;8.97;100.00
59170;BME280;52474;52.236;5.114;2023-05-02T02:27:36;102214.34;;;8.99;100.00
59170;BME280;52474;52.236;5.114;2023-05-02T02:30:03;102152.06;;;8.63;100.00
59170;BME280;52474;52.236;5.114;2023-05-02T02:32:29;102185.66;;;8.77;100.00
59170;BME280;52474;52.236;5.114;2023-05-02T02:34:55;102199.78;;;8.92;100.00
59170;BME280;52474;52.236;5.114;2023-05-02T02:37:27;102203.44;;;8.89;100.00
59170;BME280;52474;52.236;5.114;2023-05-02T02:42:48;102211.44;;;8.88;100.00
59170;BME280;52474;52.236;5.114;2023-05-02T02:45:34;102210.78;;;8.84;100.00
59170;BME280;52474;52.236;5.114;2023-05-02T02:51:12;102213.09;;;8.74;100.00
59170;BME280;52474;52.236;5.114;2023-05-02T02:54:26;102220.16;;;8.74;100.00
59170;BME280;52474;52.236;5.114;2023-05-02T02:57:02;102223.53;;;8.76;100.00
59170;BME280;52474;52.236;5.114;2023-05-02T02:59:34;102225.44;;;8.74;100.00
59170;BME280;52474;52.236;5.114;2023-05-02T03:02:06;102236.50;;;8.80;100.00
59170;BME280;52474;52.236;5.114;2023-05-02T03:04:40;102227.13;;;8.75;100.00
59170;BME280;52474;52.236;5.114;2023-05-02T03:07:08;102235.00;;;8.76;100.00
59170;BME280;52474;52.236;5.114;2023-05-02T03:09:45;102223.38;;;8.63;100.00
59170;BME280;52474;52.236;5.114;2023-05-02T03:12:15;102243.06;;;8.73;100.00
59170;BME280;52474;52.236;5.114;2023-05-02T03:14:42;102245.09;;;8.68;100.00
59170;BME280;52474;52.236;5.114;2023-05-02T03:17:08;102256.25;;;8.57;100.00
59170;BME280;52474;52.236;5.114;2023-05-02T03:19:35;102257.03;;;8.59;100.00
59170;BME280;52474;52.236;5.114;2023-05-02T03:22:02;102249.38;;;8.55;100.00
59170;BME280;52474;52.236;5.114;2023-05-02T03:24:28;102256.25;;;8.57;100.00
59170;BME280;52474;52.236;5.114;2023-05-02T03:26:57;102262.63;;;8.53;100.00
59170;BME280;52474;52.236;5.114;2023-05-02T03:29:27;102252.03;;;8.37;100.00
59170;BME280;52474;52.236;5.114;2023-05-02T03:31:53;102271.53;;;8.35;100.00
59170;BME280;52474;52.236;5.114;2023-05-02T03:34:20;102279.69;;;8.30;100.00
59170;BME280;52474;52.236;5.114;2023-05-02T03:36:47;102284.81;;;8.16;100.00
59170;BME280;52474;52.236;5.114;2023-05-02T03:39:14;102285.53;;;8.02;100.00
59170;BME280;52474;52.236;5.114;2023-05-02T03:41:41;102250.13;;;7.73;100.00
59170;BME280;52474;52.236;5.114;2023-05-02T03:44:11;102281.91;;;7.87;100.00
59170;BME280;52474;52.236;5.114;2023-05-02T03:46:37;102270.81;;;7.81;100.00
59170;BME280;52474;52.236;5.114;2023-05-02T03:49:06;102263.81;;;7.80;100.00
59170;BME280;52474;52.236;5.114;2023-05-02T03:51:33;102292.75;;;7.99;100.00
59170;BME280;52474;52.236;5.114;2023-05-02T03:54:00;102293.72;;;7.98;100.00
59170;BME280;52474;52.236;5.114;2023-05-02T03:56:30;102287.78;;;7.92;100.00
59170;BME280;52474;52.236;5.114;2023-05-02T03:59:08;102292.09;;;7.95;100.00
59170;BME280;52474;52.236;5.114;2023-05-02T04:01:33;102289.81;;;7.87;100.00
59170;BME280;52474;52.236;5.114;2023-05-02T04:04:00;102281.81;;;7.89;100.00
59170;BME280;52474;52.236;5.114;2023-05-02T04:06:30;102297.50;;;7.92;100.00
59170;BME280;52474;52.236;5.114;2023-05-02T04:09:00;102297.72;;;7.87;100.00
59170;BME280;52474;52.236;5.114;2023-05-02T04:11:35;102272.84;;;7.76;100.00
59170;BME280;52474;52.236;5.114;2023-05-02T04:14:02;102276.16;;;7.79;100.00
59170;BME280;52474;52.236;5.114;2023-05-02T04:16:28;102309.38;;;8.01;100.00
59170;BME280;52474;52.236;5.114;2023-05-02T04:18:54;102284.16;;;7.95;100.00
59170;BME280;52474;52.236;5.114;2023-05-02T04:21:21;102313.94;;;8.14;100.00
59170;BME280;52474;52.236;5.114;2023-05-02T04:23:47;102321.78;;;8.16;100.00
59170;BME280;52474;52.236;5.114;2023-05-02T04:26:13;102325.19;;;8.18;100.00
59170;BME280;52474;52.236;5.114;2023-05-02T04:28:52;102333.09;;;8.18;100.00
59170;BME280;52474;52.236;5.114;2023-05-02T04:31:18;102331.38;;;8.17;100.00
59170;BME280;52474;52.236;5.114;2023-05-02T04:33:45;102306.56;;;8.04;100.00
59170;BME280;52474;52.236;5.114;2023-05-02T04:36:14;102341.63;;;8.23;100.00
59170;BME280;52474;52.236;5.114;2023-05-02T04:38:43;102353.81;;;8.26;100.00
59170;BME280;52474;52.236;5.114;2023-05-02T04:41:10;102351.19;;;8.26;100.00
59170;BME280;52474;52.236;5.114;2023-05-02T04:43:43;102339.00;;;8.23;100.00
59170;BME280;52474;52.236;5.114;2023-05-02T04:46:09;102356.91;;;8.34;100.00
59170;BME280;52474;52.236;5.114;2023-05-02T04:48:37;102337.31;;;8.22;100.00
59170;BME280;52474;52.236;5.114;2023-05-02T04:51:07;102366.47;;;8.36;100.00
59170;BME280;52474;52.236;5.114;2023-05-02T04:53:34;102325.25;;;8.16;100.00
59170;BME280;52474;52.236;5.114;2023-05-02T04:56:00;102316.72;;;8.11;100.00
59170;BME280;52474;52.236;5.114;2023-05-02T04:58:26;102373.03;;;8.47;100.00
59170;BME280;52474;52.236;5.114;2023-05-02T05:00:58;102382.66;;;8.48;100.00
59170;BME280;52474;52.236;5.114;2023-05-02T05:03:23;102384.44;;;8.47;100.00
59170;BME280;52474;52.236;5.114;2023-05-02T05:05:49;102367.56;;;8.32;100.00
59170;BME280;52474;52.236;5.114;2023-05-02T05:08:18;102399.44;;;8.47;100.00
59170;BME280;52474;52.236;5.114;2023-05-02T05:10:44;102382.56;;;8.32;100.00
59170;BME280;52474;52.236;5.114;2023-05-02T05:13:10;102391.22;;;8.34;100.00
59170;BME280;52474;52.236;5.114;2023-05-02T05:15:39;102396.94;;;8.44;100.00
59170;BME280;52474;52.236;5.114;2023-05-02T05:18:05;102377.50;;;8.27;100.00
59170;BME280;52474;52.236;5.114;2023-05-02T05:20:31;102390.97;;;8.40;100.00
59170;BME280;52474;52.236;5.114;2023-05-02T05:22:59;102380.31;;;8.42;100.00
59170;BME280;52474;52.236;5.114;2023-05-02T05:25:29;102398.78;;;8.59;100.00
59170;BME280;52474;52.236;5.114;2023-05-02T05:27:58;102412.44;;;8.67;100.00
59170;BME280;52474;52.236;5.114;2023-05-02T05:30:25;102408.38;;;8.77;100.00
59170;BME280;52474;52.236;5.114;2023-05-02T05:32:51;102380.81;;;8.66;100.00
59170;BME280;52474;52.236;5.114;2023-05-02T05:35:17;102414.28;;;8.82;100.00
59170;BME280;52474;52.236;5.114;2023-05-02T05:37:43;102414.88;;;8.88;100.00
59170;BME280;52474;52.236;5.114;2023-05-02T05:40:11;102419.25;;;8.89;100.00
59170;BME280;52474;52.236;5.114;2023-05-02T05:42:39;102419.19;;;9.06;100.00
59170;BME280;52474;52.236;5.114;2023-05-02T05:45:11;102419.38;;;9.19;100.00
59170;BME280;52474;52.236;5.114;2023-05-02T05:47:37;102426.81;;;9.28;100.00
59170;BME280;52474;52.236;5.114;2023-05-02T05:50:04;102413.06;;;9.21;100.00
59170;BME280;52474;52.236;5.114;2023-05-02T05:52:30;102442.16;;;9.37;100.00
59170;BME280;52474;52.236;5.114;2023-05-02T05:54:58;102419.63;;;9.14;100.00
59170;BME280;52474;52.236;5.114;2023-05-02T05:57:26;102445.94;;;9.65;100.00
59170;BME280;52474;52.236;5.114;2023-05-02T05:59:53;102446.03;;;9.63;100.00
59170;BME280;52474;52.236;5.114;2023-05-02T06:02:20;102451.22;;;9.81;100.00
59170;BME280;52474;52.236;5.114;2023-05-02T06:04:46;102458.72;;;10.04;100.00
59170;BME280;52474;52.236;5.114;2023-05-02T06:07:14;102468.75;;;10.14;100.00
59170;BME280;52474;52.236;5.114;2023-05-02T06:09:40;102467.13;;;10.11;100.00
59170;BME280;52474;52.236;5.114;2023-05-02T06:12:06;102444.13;;;9.97;100.00
59170;BME280;52474;52.236;5.114;2023-05-02T06:14:33;102466.22;;;9.96;100.00
59170;BME280;52474;52.236;5.114;2023-05-02T06:16:58;102474.00;;;9.99;100.00
59170;BME280;52474;52.236;5.114;2023-05-02T06:19:26;102468.19;;;9.77;100.00
59170;BME280;52474;52.236;5.114;2023-05-02T06:21:52;102496.78;;;9.86;100.00
59170;BME280;52474;52.236;5.114;2023-05-02T06:24:17;102497.22;;;10.10;100.00
59170;BME280;52474;52.236;5.114;2023-05-02T06:26:43;102496.50;;;10.38;100.00
59170;BME280;52474;52.236;5.114;2023-05-02T06:29:09;102506.06;;;10.25;100.00
59170;BME280;52474;52.236;5.114;2023-05-02T06:31:35;102514.72;;;10.13;100.00
59170;BME280;52474;52.236;5.114;2023-05-02T06:34:00;102460.44;;;9.74;100.00
59170;BME280;52474;52.236;5.114;2023-05-02T06:36:26;102520.28;;;9.92;100.00
59170;BME280;52474;52.236;5.114;2023-05-02T06:38:52;102523.00;;;9.75;100.00
59170;BME280;52474;52.236;5.114;2023-05-02T06:41:17;102530.13;;;9.57;100.00
59170;BME280;52474;52.236;5.114;2023-05-02T06:43:45;102529.47;;;9.53;100.00
59170;BME280;52474;52.236;5.114;2023-05-02T06:46:10;102500.06;;;9.26;100.00
59170;BME280;52474;52.236;5.114;2023-05-02T06:48:36;102512.56;;;9.22;100.00
59170;BME280;52474;52.236;5.114;2023-05-02T06:51:02;102545.41;;;9.18;100.00
59170;BME280;52474;52.236;5.114;2023-05-02T06:53:29;102564.78;;;9.19;100.00
59170;BME280;52474;52.236;5.114;2023-05-02T06:55:55;102557.41;;;9.41;100.00
59170;BME280;52474;52.236;5.114;2023-05-02T06:58:22;102562.34;;;9.32;100.00
59170;BME280;52474;52.236;5.114;2023-05-02T07:00:47;102571.06;;;9.50;100.00
59170;BME280;52474;52.236;5.114;2023-05-02T07:03:14;102565.22;;;9.60;100.00
59170;BME280;52474;52.236;5.114;2023-05-02T07:05:40;102578.84;;;10.18;100.00
59170;BME280;52474;52.236;5.114;2023-05-02T07:08:06;102566.44;;;10.50;100.00
59170;BME280;52474;52.236;5.114;2023-05-02T07:10:32;102548.81;;;10.65;100.00
59170;BME280;52474;52.236;5.114;2023-05-02T07:12:57;102574.25;;;10.98;100.00
59170;BME280;52474;52.236;5.114;2023-05-02T07:15:23;102556.03;;;10.77;100.00
59170;BME280;52474;52.236;5.114;2023-05-02T07:17:49;102575.75;;;10.87;100.00
59170;BME280;52474;52.236;5.114;2023-05-02T07:20:14;102555.91;;;10.94;100.00
59170;BME280;52474;52.236;5.114;2023-05-02T07:22:41;102584.00;;;11.42;100.00
59170;BME280;52474;52.236;5.114;2023-05-02T07:25:07;102583.34;;;11.52;100.00
59170;BME280;52474;52.236;5.114;2023-05-02T07:27:34;102576.97;;;14.79;100.00
59170;BME280;52474;52.236;5.114;2023-05-02T07:30:00;102593.34;;;12.73;100.00
59170;BME280;52474;52.236;5.114;2023-05-02T07:32:26;102574.69;;;11.34;100.00
59170;BME280;52474;52.236;5.114;2023-05-02T07:34:55;102583.13;;;11.12;100.00
59170;BME280;52474;52.236;5.114;2023-05-02T07:37:22;102556.19;;;10.60;100.00
59170;BME280;52474;52.236;5.114;2023-05-02T07:39:48;102584.69;;;10.70;100.00
59170;BME280;52474;52.236;5.114;2023-05-02T07:42:16;102596.75;;;10.76;100.00
59170;BME280;52474;52.236;5.114;2023-05-02T07:44:42;102608.03;;;11.24;100.00
59170;BME280;52474;52.236;5.114;2023-05-02T07:47:08;102563.34;;;11.47;100.00
59170;BME280;52474;52.236;5.114;2023-05-02T07:49:34;102590.25;;;13.19;100.00
59170;BME280;52474;52.236;5.114;2023-05-02T07:52:06;102575.13;;;17.54;100.00
59170;BME280;52474;52.236;5.114;2023-05-02T07:54:32;102600.22;;;21.21;100.00
59170;BME280;52474;52.236;5.114;2023-05-02T07:56:57;102604.53;;;23.73;95.04
59170;BME280;52474;52.236;5.114;2023-05-02T07:59:26;102595.53;;;22.76;97.14
59170;BME280;52474;52.236;5.114;2023-05-02T08:01:52;102613.41;;;17.96;100.00
59170;BME280;52474;52.236;5.114;2023-05-02T08:04:18;102609.56;;;16.74;100.00
59170;BME280;52474;52.236;5.114;2023-05-02T08:06:44;102599.09;;;14.21;100.00
59170;BME280;52474;52.236;5.114;2023-05-02T08:09:09;102619.66;;;13.43;100.00
59170;BME280;52474;52.236;5.114;2023-05-02T08:11:35;102599.41;;;12.75;100.00
59170;BME280;52474;52.236;5.114;2023-05-02T08:14:01;102629.97;;;12.28;100.00
59170;BME280;52474;52.236;5.114;2023-05-02T08:16:26;102637.88;;;12.42;100.00
59170;BME280;52474;52.236;5.114;2023-05-02T08:18:52;102617.66;;;11.84;100.00
59170;BME280;52474;52.236;5.114;2023-05-02T08:21:18;102633.31;;;11.89;100.00
59170;BME280;52474;52.236;5.114;2023-05-02T08:23:44;102631.28;;;11.78;100.00
59170;BME280;52474;52.236;5.114;2023-05-02T08:26:10;102637.03;;;12.42;100.00
59170;BME280;52474;52.236;5.114;2023-05-02T08:28:36;102633.34;;;12.84;100.00
59170;BME280;52474;52.236;5.114;2023-05-02T08:31:05;102628.63;;;13.02;100.00
59170;BME280;52474;52.236;5.114;2023-05-02T08:33:31;102640.78;;;14.09;100.00
59170;BME280;52474;52.236;5.114;2023-05-02T08:35:57;102640.69;;;14.10;100.00
59170;BME280;52474;52.236;5.114;2023-05-02T08:38:23;102650.72;;;13.43;100.00
59170;BME280;52474;52.236;5.114;2023-05-02T08:40:48;102657.13;;;13.40;100.00
59170;BME280;52474;52.236;5.114;2023-05-02T08:43:17;102661.03;;;13.22;100.00
59170;BME280;52474;52.236;5.114;2023-05-02T08:45:44;102664.47;;;16.46;100.00
59170;BME280;52474;52.236;5.114;2023-05-02T08:48:12;102667.63;;;15.03;100.00
59170;BME280;52474;52.236;5.114;2023-05-02T08:50:40;102661.16;;;13.97;100.00
59170;BME280;52474;52.236;5.114;2023-05-02T08:53:08;102669.28;;;13.44;100.00
59170;BME280;52474;52.236;5.114;2023-05-02T08:55:36;102666.81;;;13.80;100.00
59170;BME280;52474;52.236;5.114;2023-05-02T08:58:04;102679.59;;;14.50;100.00
59170;BME280;52474;52.236;5.114;2023-05-02T09:00:32;102679.41;;;14.27;100.00
59170;BME280;52474;52.236;5.114;2023-05-02T09:05:53;102661.78;;;19.52;100.00
59170;BME280;52474;52.236;5.114;2023-05-02T09:08:22;102667.88;;;24.26;76.67
59170;BME280;52474;52.236;5.114;2023-05-02T09:10:49;102673.19;;;25.35;73.86
59170;BME280;52474;52.236;5.114;2023-05-02T09:16:10;102679.56;;;17.65;100.00
59170;BME280;52474;52.236;5.114;2023-05-02T09:18:58;102697.94;;;15.27;100.00
59170;BME280;52474;52.236;5.114;2023-05-02T09:21:35;102696.63;;;16.01;100.00
59170;BME280;52474;52.236;5.114;2023-05-02T09:24:16;102683.66;;;15.39;100.00
59170;BME280;52474;52.236;5.114;2023-05-02T09:27:02;102690.16;;;14.38;100.00
59170;BME280;52474;52.236;5.114;2023-05-02T09:29:28;102700.56;;;14.67;100.00
59170;BME280;52474;52.236;5.114;2023-05-02T09:32:03;102701.75;;;22.92;76.48
59170;BME280;52474;52.236;5.114;2023-05-02T09:34:30;102701.66;;;24.93;65.90
59170;BME280;52474;52.236;5.114;2023-05-02T09:36:56;102653.91;;;20.43;74.11
59170;BME280;52474;52.236;5.114;2023-05-02T09:39:24;102716.22;;;17.44;98.74
59170;BME280;52474;52.236;5.114;2023-05-02T09:41:56;102707.50;;;16.55;100.00
59170;BME280;52474;52.236;5.114;2023-05-02T09:44:24;102714.34;;;15.91;100.00
59170;BME280;52474;52.236;5.114;2023-05-02T09:46:52;102712.28;;;17.90;100.00
59170;BME280;52474;52.236;5.114;2023-05-02T09:49:45;102698.41;;;24.74;75.18
59170;BME280;52474;52.236;5.114;2023-05-02T09:52:12;102710.97;;;24.05;64.54
59170;BME280;52474;52.236;5.114;2023-05-02T09:54:38;102718.94;;;19.44;84.47
59170;BME280;52474;52.236;5.114;2023-05-02T09:57:04;102725.69;;;17.48;99.70
59170;BME280;52474;52.236;5.114;2023-05-02T09:59:31;102727.81;;;15.89;100.00
59170;BME280;52474;52.236;5.114;2023-05-02T10:02:03;102726.16;;;16.00;100.00
59170;BME280;52474;52.236;5.114;2023-05-02T10:04:30;102719.53;;;16.71;100.00
59170;BME280;52474;52.236;5.114;2023-05-02T10:06:57;102720.56;;;20.22;97.01
59170;BME280;52474;52.236;5.114;2023-05-02T10:09:24;102723.91;;;20.33;82.63
59170;BME280;52474;52.236;5.114;2023-05-02T10:11:52;102708.50;;;19.12;91.17
59170;BME280;52474;52.236;5.114;2023-05-02T10:14:19;102724.03;;;17.77;96.11
59170;BME280;52474;52.236;5.114;2023-05-02T10:19:22;102728.88;;;16.66;100.00
59170;BME280;52474;52.236;5.114;2023-05-02T10:21:49;102752.94;;;17.53;95.86
59170;BME280;52474;52.236;5.114;2023-05-02T10:24:15;102715.00;;;18.80;94.11
59170;BME280;52474;52.236;5.114;2023-05-02T10:26:42;102727.09;;;20.19;80.04
59170;BME280;52474;52.236;5.114;2023-05-02T10:29:09;102734.88;;;17.76;89.36
59170;BME280;52474;52.236;5.114;2023-05-02T10:31:36;102751.88;;;16.80;98.77
59170;BME280;52474;52.236;5.114;2023-05-02T10:34:04;102743.69;;;19.48;85.44
59170;BME280;52474;52.236;5.114;2023-05-02T10:36:32;102732.47;;;20.19;78.64
59170;BME280;52474;52.236;5.114;2023-05-02T10:38:58;102748.63;;;20.74;77.16
59170;BME280;52474;52.236;5.114;2023-05-02T10:41:26;102752.28;;;19.51;80.32
59170;BME280;52474;52.236;5.114;2023-05-02T10:43:53;102751.22;;;22.93;68.54
59170;BME280;52474;52.236;5.114;2023-05-02T10:49:05;102738.31;;;20.70;75.55
59170;BME280;52474;52.236;5.114;2023-05-02T10:51:32;102742.69;;;22.13;71.46
59170;BME280;52474;52.236;5.114;2023-05-02T10:54:18;102744.81;;;17.43;86.92
59170;BME280;52474;52.236;5.114;2023-05-02T11:00:11;102752.47;;;23.48;64.25
59170;BME280;52474;52.236;5.114;2023-05-02T11:05:11;102765.84;;;17.80;84.97
59170;BME280;52474;52.236;5.114;2023-05-02T11:07:37;102757.81;;;21.79;72.80
59170;BME280;52474;52.236;5.114;2023-05-02T11:12:57;102754.13;;;23.65;63.96
59170;BME280;52474;52.236;5.114;2023-05-02T11:20:26;102749.34;;;22.77;62.46
59170;BME280;52474;52.236;5.114;2023-05-02T11:22:54;102753.50;;;21.25;66.45
59170;BME280;52474;52.236;5.114;2023-05-02T11:25:31;102760.66;;;19.09;76.67
59170;BME280;52474;52.236;5.114;2023-05-02T11:27:57;102741.53;;;21.89;68.76
59170;BME280;52474;52.236;5.114;2023-05-02T11:30:38;102751.63;;;21.87;68.75
59170;BME280;52474;52.236;5.114;2023-05-02T11:35:34;102765.16;;;20.62;69.27
59170;BME280;52474;52.236;5.114;2023-05-02T11:38:07;102764.13;;;21.08;71.05
59170;BME280;52474;52.236;5.114;2023-05-02T11:40:33;102767.75;;;22.31;65.06
59170;BME280;52474;52.236;5.114;2023-05-02T11:42:59;102754.66;;;23.69;61.79
59170;BME280;52474;52.236;5.114;2023-05-02T11:45:33;102773.94;;;21.97;64.17
59170;BME280;52474;52.236;5.114;2023-05-02T11:48:05;102781.41;;;18.78;71.92
59170;BME280;52474;52.236;5.114;2023-05-02T11:50:32;102765.66;;;20.75;77.17
59170;BME280;52474;52.236;5.114;2023-05-02T11:52:58;102755.16;;;22.40;64.09
59170;BME280;52474;52.236;5.114;2023-05-02T11:55:24;102783.13;;;20.33;67.22
59170;BME280;52474;52.236;5.114;2023-05-02T11:57:50;102775.03;;;20.33;69.61
59170;BME280;52474;52.236;5.114;2023-05-02T12:00:16;102797.72;;;21.32;68.25
59170;BME280;52474;52.236;5.114;2023-05-02T12:02:44;102791.31;;;20.97;70.93
59170;BME280;52474;52.236;5.114;2023-05-02T12:05:12;102791.97;;;18.80;73.91
59170;BME280;52474;52.236;5.114;2023-05-02T12:07:42;102795.44;;;21.09;71.48
59170;BME280;52474;52.236;5.114;2023-05-02T12:10:10;102786.09;;;20.30;69.22
59170;BME280;52474;52.236;5.114;2023-05-02T12:12:36;102804.50;;;19.10;74.03
59170;BME280;52474;52.236;5.114;2023-05-02T12:15:04;102808.31;;;17.31;85.45
59170;BME280;52474;52.236;5.114;2023-05-02T12:17:31;102784.09;;;16.33;91.67
59170;BME280;52474;52.236;5.114;2023-05-02T12:19:59;102805.38;;;17.88;87.76
59170;BME280;52474;52.236;5.114;2023-05-02T12:22:27;102787.69;;;18.06;85.23
59170;BME280;52474;52.236;5.114;2023-05-02T12:24:53;102789.78;;;19.14;82.05
59170;BME280;52474;52.236;5.114;2023-05-02T12:27:19;102789.50;;;19.27;79.27
59170;BME280;52474;52.236;5.114;2023-05-02T12:29:46;102815.69;;;19.44;80.46
59170;BME280;52474;52.236;5.114;2023-05-02T12:32:13;102815.81;;;19.23;81.79
59170;BME280;52474;52.236;5.114;2023-05-02T12:34:39;102805.59;;;19.66;84.37
59170;BME280;52474;52.236;5.114;2023-05-02T12:37:07;102814.94;;;19.13;80.51
59170;BME280;52474;52.236;5.114;2023-05-02T12:39:39;102816.97;;;19.69;82.42
59170;BME280;52474;52.236;5.114;2023-05-02T12:42:22;102827.28;;;19.45;81.47
59170;BME280;52474;52.236;5.114;2023-05-02T12:44:49;102817.47;;;18.03;83.84
59170;BME280;52474;52.236;5.114;2023-05-02T12:47:19;102836.78;;;18.89;83.15
59170;BME280;52474;52.236;5.114;2023-05-02T12:52:19;102839.94;;;18.63;81.16
59170;BME280;52474;52.236;5.114;2023-05-02T12:54:45;102826.84;;;18.18;88.87
59170;BME280;52474;52.236;5.114;2023-05-02T12:57:24;102804.22;;;17.80;86.74
59170;BME280;52474;52.236;5.114;2023-05-02T12:59:53;102835.25;;;17.51;91.04
59170;BME280;52474;52.236;5.114;2023-05-02T13:02:20;102829.25;;;18.42;92.72
59170;BME280;52474;52.236;5.114;2023-05-02T13:04:47;102802.50;;;18.62;85.94
59170;BME280;52474;52.236;5.114;2023-05-02T13:07:12;102834.28;;;18.36;87.55
59170;BME280;52474;52.236;5.114;2023-05-02T13:09:38;102788.88;;;16.29;92.04
59170;BME280;52474;52.236;5.114;2023-05-02T13:12:04;102828.13;;;16.97;97.56
59170;BME280;52474;52.236;5.114;2023-05-02T13:14:30;102821.03;;;17.07;94.23
59170;BME280;52474;52.236;5.114;2023-05-02T13:16:56;102812.97;;;17.18;86.76
59170;BME280;52474;52.236;5.114;2023-05-02T13:19:22;102824.44;;;17.09;97.31
59170;BME280;52474;52.236;5.114;2023-05-02T13:21:48;102814.16;;;16.59;98.22
59170;BME280;52474;52.236;5.114;2023-05-02T13:24:14;102834.78;;;16.23;100.00
59170;BME280;52474;52.236;5.114;2023-05-02T13:26:42;102824.94;;;16.46;97.24
59170;BME280;52474;52.236;5.114;2023-05-02T13:29:08;102815.59;;;17.29;92.53
59170;BME280;52474;52.236;5.114;2023-05-02T13:31:37;102830.66;;;17.42;91.22
59170;BME280;52474;52.236;5.114;2023-05-02T13:34:03;102833.34;;;18.16;91.54
59170;BME280;52474;52.236;5.114;2023-05-02T13:36:29;102840.50;;;17.73;93.47